Time;durP1;ratioP1;P1;durP2;ratioP2;P2;SDS_P1;SDS_P2;PMS_P1;PMS_P2;Temp;Humidity;BMP_temperature;BMP_pressure;BME280_temperature;BME280_humidity;BME280_pressure;Samples;Min_cycle;Max_cycle;Signal;HPM_P1;HPM_P2
2022/09/05 00:02:32;;;;;;;18.30;16.63;;;17.70;99.90;;;;;;5092096;28;20200;-79
2022/09/05 00:05:28;;;;;;;17.42;15.75;;;17.70;99.90;;;;;;5094360;28;20201;-78
2022/09/05 00:08:05;;;;;;;15.55;14.13;;;17.70;99.90;;;;;;5078832;28;20197;-78
2022/09/05 00:10:42;;;;;;;15.25;13.85;;;17.70;99.90;;;;;;5093418;28;20204;-79
2022/09/05 00:13:15;;;;;;;16.50;14.85;;;17.60;99.90;;;;;;5092531;28;20211;-79
2022/09/05 00:16:00;;;;;;;15.65;14.15;;;17.50;99.90;;;;;;5087583;28;20208;-78
2022/09/05 00:18:41;;;;;;;16.90;15.27;;;17.50;99.90;;;;;;5094635;28;20199;-80
2022/09/05 00:21:20;;;;;;;16.52;14.93;;;17.50;99.90;;;;;;5094253;28;20318;-79
2022/09/05 00:24:02;;;;;;;16.55;15.02;;;17.50;99.90;;;;;;5092933;28;20315;-79
2022/09/05 00:26:39;;;;;;;17.65;15.95;;;17.40;99.90;;;;;;5089428;28;20220;-77
2022/09/05 00:29:18;;;;;;;15.82;14.43;;;17.50;99.90;;;;;;5093891;28;20200;-78
2022/09/05 00:31:58;;;;;;;15.43;13.95;;;17.40;99.90;;;;;;5090216;28;20235;-79
2022/09/05 00:34:49;;;;;;;14.95;13.55;;;17.40;99.90;;;;;;5098010;28;20202;-81
2022/09/05 00:37:30;;;;;;;13.65;12.45;;;17.30;99.90;;;;;;5093889;28;20197;-81
2022/09/05 00:40:15;;;;;;;15.18;13.68;;;17.30;99.90;;;;;;5093878;28;20299;-80
2022/09/05 00:42:44;;;;;;;14.82;13.35;;;17.20;99.90;;;;;;5093910;28;20301;-81
2022/09/05 00:45:17;;;;;;;16.50;14.98;;;17.20;99.90;;;;;;5097725;28;20228;-81
2022/09/05 00:47:48;;;;;;;15.00;13.65;;;17.20;99.90;;;;;;5094363;28;20211;-80
2022/09/05 00:50:24;;;;;;;15.80;14.35;;;17.10;99.90;;;;;;5086049;28;20511;-80
2022/09/05 00:52:56;;;;;;;14.30;13.00;;;17.10;99.90;;;;;;5091698;28;20211;-81
2022/09/05 00:55:33;;;;;;;16.17;14.57;;;17.10;99.90;;;;;;5080411;28;20635;-81
2022/09/05 00:58:15;;;;;;;15.85;14.35;;;17.00;99.90;;;;;;5092690;28;20283;-80
2022/09/05 01:00:52;;;;;;;14.07;12.80;;;17.00;99.90;;;;;;5088720;28;20626;-81
2022/09/05 01:03:57;;;;;;;13.60;12.40;;;17.00;99.90;;;;;;5082130;28;20213;-79
2022/09/05 01:06:34;;;;;;;14.20;12.80;;;17.00;99.90;;;;;;5091150;28;20291;-79
2022/09/05 01:09:20;;;;;;;14.02;12.73;;;16.90;99.90;;;;;;5093590;28;20276;-81
2022/09/05 01:12:06;;;;;;;12.95;11.75;;;16.90;99.90;;;;;;5089436;28;20185;-79
2022/09/05 01:14:48;;;;;;;14.05;12.70;;;16.90;99.90;;;;;;5091417;28;20208;-79
2022/09/05 01:17:30;;;;;;;15.48;14.05;;;16.90;99.90;;;;;;5088441;28;20284;-79
2022/09/05 01:20:17;;;;;;;14.98;13.48;;;16.90;99.90;;;;;;5090404;28;20573;-80
2022/09/05 01:22:59;;;;;;;13.63;12.23;;;16.80;99.90;;;;;;5093254;28;20582;-80
2022/09/05 01:25:42;;;;;;;13.48;12.10;;;16.80;99.90;;;;;;5091542;28;20509;-78
2022/09/05 01:28:20;;;;;;;14.95;13.45;;;16.80;99.90;;;;;;5092697;28;20291;-80
2022/09/05 01:30:54;;;;;;;15.55;14.05;;;16.80;99.90;;;;;;5093312;28;20224;-79
2022/09/05 01:33:31;;;;;;;14.00;12.40;;;16.70;99.90;;;;;;5088314;28;20204;-80
2022/09/05 01:36:17;;;;;;;14.02;12.68;;;16.70;99.90;;;;;;5089045;28;20299;-81
2022/09/05 01:38:55;;;;;;;14.30;12.90;;;16.70;99.90;;;;;;5088329;28;20227;-80
2022/09/05 01:41:29;;;;;;;14.68;13.32;;;16.70;99.90;;;;;;5089218;28;20209;-81
2022/09/05 01:44:14;;;;;;;13.73;12.43;;;16.60;99.90;;;;;;5092681;28;20304;-81
2022/09/05 01:46:51;;;;;;;13.27;11.93;;;16.60;99.90;;;;;;5092828;28;20201;-80
2022/09/05 01:49:28;;;;;;;12.65;11.45;;;16.60;99.90;;;;;;5090522;28;20208;-81
2022/09/05 01:52:22;;;;;;;14.32;12.85;;;16.60;99.90;;;;;;5084284;28;20204;-80
2022/09/05 01:55:04;;;;;;;14.02;12.15;;;16.50;99.90;;;;;;5091548;28;20203;-81
2022/09/05 01:57:40;;;;;;;13.13;11.82;;;16.50;99.90;;;;;;5088319;28;20271;-81
2022/09/05 02:00:14;;;;;;;12.70;11.50;;;16.50;99.90;;;;;;5081193;28;20201;-80
2022/09/05 02:03:01;;;;;;;17.23;14.95;;;16.50;99.90;;;;;;5092771;28;20200;-80
2022/09/05 02:06:01;;;;;;;14.23;12.73;;;16.40;99.90;;;;;;5093005;28;20573;-80
2022/09/05 02:08:42;;;;;;;13.98;12.68;;;16.50;99.90;;;;;;5084316;28;20387;-79
2022/09/05 02:11:10;;;;;;;12.40;10.93;;;16.40;99.90;;;;;;5091765;28;20602;-79
2022/09/05 02:13:53;;;;;;;11.85;10.65;;;16.40;99.90;;;;;;5092326;28;20197;-79
2022/09/05 02:16:28;;;;;;;11.23;10.13;;;16.40;99.90;;;;;;5091956;28;20254;-80
2022/09/05 02:19:04;;;;;;;11.27;10.13;;;16.40;99.90;;;;;;5092493;28;20199;-80
2022/09/05 02:21:41;;;;;;;9.85;8.95;;;16.40;99.90;;;;;;5092726;28;20202;-81
2022/09/05 02:24:17;;;;;;;10.15;9.15;;;16.40;99.90;;;;;;5091991;28;20211;-80
2022/09/05 02:26:59;;;;;;;10.85;9.85;;;16.40;99.90;;;;;;5092811;28;20192;-81
2022/09/05 02:29:35;;;;;;;11.93;9.35;;;16.30;99.90;;;;;;5085256;28;20770;-81
2022/09/05 02:32:12;;;;;;;9.85;8.85;;;16.30;99.90;;;;;;5082500;28;20552;-79
2022/09/05 02:34:45;;;;;;;9.32;8.43;;;16.30;99.90;;;;;;5091687;28;20188;-80
2022/09/05 02:37:20;;;;;;;10.25;9.23;;;16.20;99.90;;;;;;5085640;28;20201;-80
2022/09/05 02:39:51;;;;;;;9.75;8.77;;;16.20;99.90;;;;;;5091422;28;20287;-79
2022/09/05 02:42:25;;;;;;;9.45;8.55;;;16.20;99.90;;;;;;5091088;28;20204;-79
2022/09/05 02:45:05;;;;;;;10.13;8.98;;;16.20;99.90;;;;;;5090409;28;20303;-79
2022/09/05 02:47:40;;;;;;;9.77;8.77;;;16.10;99.90;;;;;;5085809;28;20202;-79
2022/09/05 02:50:31;;;;;;;8.88;8.02;;;16.10;99.90;;;;;;5091318;28;20560;-79
2022/09/05 02:52:59;;;;;;;8.70;7.80;;;16.10;99.90;;;;;;5093648;28;20210;-80
2022/09/05 02:55:34;;;;;;;8.35;7.15;;;16.10;99.90;;;;;;5093367;28;20196;-79
2022/09/05 02:58:30;;;;;;;8.38;7.35;;;16.10;99.90;;;;;;5091050;28;20191;-80
2022/09/05 03:01:07;;;;;;;7.75;6.95;;;16.10;99.90;;;;;;5088187;28;20208;-79
2022/09/05 03:03:40;;;;;;;8.40;7.20;;;16.10;99.90;;;;;;5084521;28;20536;-81
2022/09/05 03:06:18;;;;;;;8.52;7.70;;;16.00;99.90;;;;;;5090999;28;20207;-81
2022/09/05 03:09:12;;;;;;;8.38;7.15;;;16.00;99.90;;;;;;5084918;28;20212;-80
2022/09/05 03:12:25;;;;;;;8.43;7.55;;;16.00;99.90;;;;;;5084078;28;20193;-80
2022/09/05 03:15:36;;;;;;;6.95;6.28;;;15.90;99.90;;;;;;5048275;28;20214;-80
2022/09/05 03:19:00;;;;;;;9.00;7.10;;;15.90;99.90;;;;;;5092169;28;20208;-81
2022/09/05 03:21:54;;;;;;;7.80;6.93;;;15.90;99.90;;;;;;5011355;28;20245;-80
2022/09/05 03:24:51;;;;;;;7.20;6.20;;;15.90;99.90;;;;;;5005603;28;20223;-81
2022/09/05 03:27:52;;;;;;;9.40;7.10;;;15.90;99.90;;;;;;5078286;28;20205;-82
2022/09/05 03:30:21;;;;;;;6.40;5.88;;;15.90;99.90;;;;;;5088509;28;20260;-80
2022/09/05 03:33:21;;;;;;;7.03;5.97;;;15.80;99.90;;;;;;5095214;28;20577;-80
2022/09/05 03:36:29;;;;;;;6.45;5.88;;;15.80;99.90;;;;;;5090574;28;20186;-80
2022/09/05 03:39:32;;;;;;;6.88;6.18;;;15.80;99.90;;;;;;5093900;28;20211;-79
2022/09/05 03:42:24;;;;;;;6.45;5.85;;;15.80;99.90;;;;;;5094507;28;20196;-81
2022/09/05 03:45:16;;;;;;;6.03;5.43;;;15.80;99.90;;;;;;5078012;28;20259;-80
2022/09/05 03:48:11;;;;;;;5.65;5.15;;;15.80;99.90;;;;;;5059579;28;20204;-80
2022/09/05 03:50:44;;;;;;;7.00;5.82;;;15.80;99.90;;;;;;5093353;28;20254;-80
2022/09/05 03:53:49;;;;;;;5.65;5.03;;;15.80;99.90;;;;;;5094878;28;20204;-80
2022/09/05 03:56:39;;;;;;;6.28;5.38;;;15.80;99.90;;;;;;5093667;28;20200;-79
2022/09/05 03:59:45;;;;;;;7.18;5.88;;;15.80;99.90;;;;;;5089122;28;20296;-80
2022/09/05 04:02:17;;;;;;;6.80;5.75;;;15.80;99.90;;;;;;5081086;28;20678;-80
2022/09/05 04:04:48;;;;;;;6.45;5.72;;;15.80;99.90;;;;;;5093812;28;20231;-79
2022/09/05 04:07:21;;;;;;;6.38;5.78;;;15.70;99.90;;;;;;5087826;28;20224;-80
2022/09/05 04:09:54;;;;;;;6.47;5.77;;;15.80;99.90;;;;;;5093856;28;20284;-81
2022/09/05 04:12:27;;;;;;;6.65;5.57;;;15.80;99.90;;;;;;5094573;28;20618;-81
2022/09/05 04:14:59;;;;;;;6.28;5.28;;;15.70;99.90;;;;;;5095960;28;20208;-81
2022/09/05 04:17:34;;;;;;;6.15;5.15;;;15.70;99.90;;;;;;5094770;28;20193;-81
2022/09/05 04:20:10;;;;;;;6.28;5.22;;;15.70;99.90;;;;;;5094505;28;20652;-80
2022/09/05 04:23:07;;;;;;;7.88;5.78;;;15.70;99.90;;;;;;5084975;28;20195;-81
2022/09/05 04:25:48;;;;;;;7.05;5.70;;;15.70;99.90;;;;;;5091849;28;20639;-80
2022/09/05 04:28:30;;;;;;;6.25;5.65;;;15.70;99.90;;;;;;5087711;28;20639;-81
2022/09/05 04:31:04;;;;;;;5.65;5.10;;;15.70;99.90;;;;;;5089232;28;20220;-81
2022/09/05 04:33:38;;;;;;;6.78;5.72;;;15.70;99.90;;;;;;5092730;28;20196;-80
2022/09/05 04:36:19;;;;;;;6.18;5.10;;;15.70;99.90;;;;;;5093915;28;20200;-80
2022/09/05 04:39:05;;;;;;;6.30;5.40;;;15.70;99.90;;;;;;5094006;28;20209;-80
2022/09/05 04:41:38;;;;;;;7.65;6.22;;;15.70;99.90;;;;;;5091521;28;20200;-80
2022/09/05 04:44:09;;;;;;;5.70;5.10;;;15.60;99.90;;;;;;5093722;28;20236;-80
2022/09/05 04:46:41;;;;;;;5.68;5.18;;;15.60;99.90;;;;;;5093837;28;20526;-80
2022/09/05 04:49:13;;;;;;;6.03;4.88;;;15.60;99.90;;;;;;5093284;28;20204;-80
2022/09/05 04:51:59;;;;;;;7.40;5.85;;;15.60;99.90;;;;;;5093471;28;20196;-81
2022/09/05 04:54:31;;;;;;;6.55;5.95;;;15.60;99.90;;;;;;5094134;28;20276;-81
2022/09/05 04:57:09;;;;;;;7.63;5.45;;;15.60;99.90;;;;;;5093428;28;20204;-79
2022/09/05 04:59:44;;;;;;;7.20;5.93;;;15.60;99.90;;;;;;5093731;28;20530;-81
2022/09/05 05:02:23;;;;;;;6.40;5.80;;;15.50;99.90;;;;;;5093834;28;20299;-79
2022/09/05 05:04:50;;;;;;;5.95;5.25;;;15.50;99.90;;;;;;5092801;28;20222;-80
2022/09/05 05:07:22;;;;;;;6.15;5.55;;;15.50;99.90;;;;;;5093746;28;20196;-79
2022/09/05 05:09:52;;;;;;;6.30;5.65;;;15.50;99.90;;;;;;5086357;28;20200;-78
2022/09/05 05:12:23;;;;;;;6.82;6.18;;;15.50;99.90;;;;;;5091820;28;20208;-79
2022/09/05 05:14:56;;;;;;;7.00;6.22;;;15.50;99.90;;;;;;5093450;28;20616;-79
2022/09/05 05:17:33;;;;;;;6.28;5.68;;;15.50;99.90;;;;;;5093260;28;20201;-81
2022/09/05 05:20:09;;;;;;;6.40;5.85;;;15.50;99.90;;;;;;5085505;28;20275;-81
2022/09/05 05:22:46;;;;;;;7.60;6.50;;;15.60;99.90;;;;;;5086755;28;20589;-80
2022/09/05 05:25:14;;;;;;;7.32;6.13;;;15.60;99.90;;;;;;5091182;28;20213;-80
2022/09/05 05:27:46;;;;;;;7.57;5.90;;;15.60;99.90;;;;;;5093065;28;20200;-80
2022/09/05 05:30:24;;;;;;;7.57;5.97;;;15.60;99.90;;;;;;5093346;28;20227;-80
2022/09/05 05:32:54;;;;;;;7.20;6.50;;;15.70;99.90;;;;;;5090912;28;20200;-81
2022/09/05 05:35:26;;;;;;;6.18;5.47;;;15.70;99.90;;;;;;5091355;28;20825;-79
2022/09/05 05:37:59;;;;;;;7.13;6.13;;;15.70;99.90;;;;;;5092963;28;20189;-80
2022/09/05 05:40:29;;;;;;;9.45;6.22;;;15.80;99.90;;;;;;5091659;28;20216;-79
2022/09/05 05:43:14;;;;;;;8.35;5.88;;;15.80;99.90;;;;;;5086005;28;20327;-80
2022/09/05 05:45:41;;;;;;;8.17;5.90;;;15.80;99.90;;;;;;5092432;28;20758;-80
2022/09/05 05:48:32;;;;;;;7.10;5.18;;;15.90;99.90;;;;;;5091931;28;20201;-79
2022/09/05 05:51:15;;;;;;;5.93;5.40;;;15.90;99.90;;;;;;5089855;28;20213;-81
2022/09/05 05:53:48;;;;;;;6.47;5.60;;;15.90;99.90;;;;;;5092338;28;20220;-81
2022/09/05 05:56:32;;;;;;;6.50;5.90;;;16.00;99.90;;;;;;5092148;28;20615;-80
2022/09/05 05:59:09;;;;;;;8.30;6.05;;;16.00;99.90;;;;;;5092475;28;20295;-82
2022/09/05 06:02:20;;;;;;;6.50;5.68;;;16.00;99.90;;;;;;5089659;28;20196;-81
2022/09/05 06:05:15;;;;;;;6.65;6.05;;;16.10;99.90;;;;;;5091827;28;20312;-80
2022/09/05 06:07:53;;;;;;;6.93;6.20;;;16.10;99.90;;;;;;5086706;28;20216;-80
2022/09/05 06:10:52;;;;;;;5.97;5.38;;;16.20;99.90;;;;;;5087011;28;20200;-81
2022/09/05 06:13:57;;;;;;;8.10;6.20;;;16.30;99.90;;;;;;5091894;28;20207;-80
2022/09/05 06:17:05;;;;;;;9.82;6.88;;;16.40;99.90;;;;;;5086531;28;20196;-81
2022/09/05 06:20:16;;;;;;;7.60;6.82;;;16.50;99.90;;;;;;5088707;28;20207;-80
2022/09/05 06:23:18;;;;;;;9.40;7.82;;;16.60;99.90;;;;;;5054087;28;20216;-80
2022/09/05 06:26:07;;;;;;;7.88;7.07;;;16.70;99.90;;;;;;5077189;28;20288;-80
2022/09/05 06:28:48;;;;;;;11.82;7.93;;;16.80;99.90;;;;;;5091067;28;20612;-80
2022/09/05 06:31:36;;;;;;;9.07;7.88;;;16.90;99.90;;;;;;5091741;28;20224;-80
2022/09/05 06:34:23;;;;;;;14.48;7.90;;;17.00;99.90;;;;;;5091911;28;20197;-80
2022/09/05 06:37:00;;;;;;;10.95;7.90;;;17.20;99.90;;;;;;5082534;28;20204;-80
2022/09/05 06:39:49;;;;;;;12.20;8.40;;;17.30;99.90;;;;;;5091721;28;20377;-80
2022/09/05 06:42:24;;;;;;;13.23;8.15;;;17.40;99.90;;;;;;5084929;28;20207;-80
2022/09/05 06:45:26;;;;;;;14.43;8.77;;;17.50;99.90;;;;;;5088691;28;20207;-81
2022/09/05 06:48:04;;;;;;;12.30;8.98;;;17.60;99.90;;;;;;5091956;28;20653;-80
2022/09/05 06:50:39;;;;;;;11.18;8.27;;;17.80;99.90;;;;;;5090001;28;20204;-79
2022/09/05 06:53:47;;;;;;;13.38;8.50;;;17.90;99.90;;;;;;5091599;28;20204;-80
2022/09/05 06:56:43;;;;;;;10.68;8.40;;;18.00;99.90;;;;;;5087794;28;20209;-81
2022/09/05 06:59:34;;;;;;;9.90;7.93;;;18.10;99.90;;;;;;5089648;28;20211;-80
2022/09/05 07:02:07;;;;;;;10.95;8.52;;;18.30;99.90;;;;;;5086253;28;20589;-79
2022/09/05 07:04:36;;;;;;;12.38;8.52;;;18.40;99.90;;;;;;5090859;28;20193;-78
2022/09/05 07:07:12;;;;;;;9.18;8.20;;;18.40;99.90;;;;;;5088179;28;20201;-80
2022/09/05 07:09:52;;;;;;;9.90;7.95;;;18.50;99.90;;;;;;5091754;28;20267;-80
2022/09/05 07:12:26;;;;;;;11.75;8.43;;;18.60;99.90;;;;;;5090995;28;20280;-79
2022/09/05 07:15:00;;;;;;;9.35;8.35;;;18.70;99.90;;;;;;5091952;28;20465;-79
2022/09/05 07:17:39;;;;;;;12.07;8.02;;;18.70;99.90;;;;;;5091743;28;20183;-82
2022/09/05 07:20:16;;;;;;;13.30;8.45;;;18.80;99.90;;;;;;5089566;28;20196;-81
2022/09/05 07:22:53;;;;;;;18.38;10.00;;;18.90;99.90;;;;;;5091797;28;20203;-81
2022/09/05 07:25:25;;;;;;;13.88;9.02;;;19.00;99.90;;;;;;5090828;28;20216;-80
2022/09/05 07:27:57;;;;;;;12.88;9.02;;;19.10;99.90;;;;;;5090568;28;20228;-80
2022/09/05 07:30:25;;;;;;;13.68;9.30;;;19.30;99.90;;;;;;5091750;28;20303;-81
2022/09/05 07:32:53;;;;;;;10.00;8.10;;;19.40;99.90;;;;;;5091064;28;20207;-81
2022/09/05 07:35:25;;;;;;;14.60;9.80;;;19.60;99.90;;;;;;5090930;28;20553;-81
2022/09/05 07:38:01;;;;;;;17.08;9.55;;;19.70;99.90;;;;;;5091175;28;20523;-81
2022/09/05 07:40:29;;;;;;;7.70;6.32;;;19.90;99.90;;;;;;5090678;28;20230;-82
2022/09/05 07:43:04;;;;;;;10.35;5.40;;;20.00;99.90;;;;;;5091438;28;20231;-79
2022/09/05 07:45:31;;;;;;;6.50;3.95;;;20.30;99.90;;;;;;5091518;28;20224;-79
2022/09/05 07:48:02;;;;;;;5.07;4.13;;;20.50;99.90;;;;;;5091160;28;20211;-79
2022/09/05 07:50:31;;;;;;;7.80;3.60;;;20.70;99.90;;;;;;5092684;28;20189;-83
2022/09/05 07:53:02;;;;;;;5.50;3.55;;;20.90;99.90;;;;;;5092060;28;20207;-82
2022/09/05 07:55:33;;;;;;;6.75;3.50;;;21.10;99.90;;;;;;5092534;28;20264;-78
2022/09/05 07:58:07;;;;;;;5.93;3.15;;;21.30;1.00;;;;;;5092367;28;20200;-81
2022/09/05 08:00:35;;;;;;;3.55;3.20;;;21.50;1.00;;;;;;5095187;28;20506;-82
2022/09/05 08:03:10;;;;;;;4.97;2.97;;;21.60;1.00;;;;;;5095491;28;20205;-81
2022/09/05 08:05:41;;;;;;;3.28;2.97;;;21.80;99.90;;;;;;5095395;28;20220;-82
2022/09/05 08:08:13;;;;;;;3.78;2.85;;;22.10;99.90;;;;;;5095192;28;20195;-81
2022/09/05 08:10:45;;;;;;;4.57;2.85;;;22.30;1.00;;;;;;5095191;28;20202;-82
2022/09/05 08:13:16;;;;;;;4.18;2.55;;;22.50;1.00;;;;;;5095274;28;20196;-81
2022/09/05 08:15:46;;;;;;;4.88;2.60;;;22.70;1.00;;;;;;5095243;28;20191;-81
2022/09/05 08:18:17;;;;;;;3.33;2.58;;;22.90;99.90;;;;;;5095813;28;20207;-82
2022/09/05 08:20:50;;;;;;;8.35;2.55;;;23.20;99.90;;;;;;5077596;28;20284;-83
2022/09/05 08:23:41;;;;;;;4.03;2.38;;;23.40;1.00;;;;;;5074698;28;20209;-82
2022/09/05 08:26:12;;;;;;;3.83;2.17;;;23.70;1.00;;;;;;5075080;28;20219;-82
2022/09/05 08:28:54;;;;;;;4.13;2.40;;;24.00;99.90;;;;;;5074285;28;20201;-80
2022/09/05 08:31:26;;;;;;;3.13;2.20;;;24.30;1.00;;;;;;5075054;28;20248;-81
2022/09/05 08:33:59;;;;;;;3.28;2.05;;;24.50;1.00;;;;;;5074797;28;20208;-82
2022/09/05 08:36:31;;;;;;;4.60;2.22;;;24.70;1.00;;;;;;5074718;28;20688;-82
2022/09/05 08:39:01;;;;;;;2.08;1.88;;;24.90;1.00;;;;;;5074143;28;20201;-78
2022/09/05 08:41:33;;;;;;;6.93;2.38;;;25.10;1.00;;;;;;5073385;28;20368;-78
2022/09/05 08:44:09;;;;;;;4.53;2.03;;;25.30;1.00;;;;;;5073204;28;20241;-80
2022/09/05 08:46:47;;;;;;;7.05;2.10;;;25.50;1.00;;;;;;5083184;28;20708;-78
2022/09/05 08:49:35;;;;;;;4.32;1.80;;;25.70;99.90;;;;;;5093461;28;20284;-79
2022/09/05 08:52:07;;;;;;;4.68;2.03;;;25.80;99.90;;;;;;5093094;28;20219;-78
2022/09/05 08:54:42;;;;;;;7.68;2.30;;;26.10;99.90;;;;;;5099189;22;20367;-82
2022/09/05 08:57:17;;;;;;;4.68;2.17;;;26.20;99.90;;;;;;5058365;28;20197;-80
2022/09/05 08:59:55;;;;;;;2.00;1.77;;;26.30;99.90;;;;;;5053974;28;20559;-81
2022/09/05 09:02:54;;;;;;;3.88;2.17;;;26.60;99.90;;;;;;5054295;28;20277;-80
2022/09/05 09:05:46;;;;;;;3.47;1.73;;;26.70;99.90;;;;;;5052349;28;20217;-80
2022/09/05 09:08:18;;;;;;;4.10;1.60;;;26.80;99.90;;;;;;5069858;28;20206;-81
2022/09/05 09:10:53;;;;;;;6.28;2.30;;;27.20;99.90;;;;;;5060987;28;20474;-80
2022/09/05 09:13:50;;;;;;;5.00;1.83;;;27.30;99.90;;;;;;5053040;28;20501;-80
2022/09/05 09:16:29;;;;;;;4.32;2.38;;;27.30;99.90;;;;;;5058255;28;20194;-78
2022/09/05 09:19:09;;;;;;;4.65;2.00;;;27.20;99.90;;;;;;5089699;28;20628;-83
2022/09/05 09:21:42;;;;;;;3.55;2.10;;;27.40;99.90;;;;;;5078462;28;20193;-80
2022/09/05 09:24:22;;;;;;;4.85;2.08;;;27.60;99.90;;;;;;5054445;28;20193;-81
2022/09/05 09:26:55;;;;;;;3.72;1.70;;;27.80;99.90;;;;;;5055729;28;20277;-81
2022/09/05 09:29:23;;;;;;;4.22;1.83;;;27.90;99.90;;;;;;5058014;28;20191;-80
2022/09/05 09:32:04;;;;;;;5.07;1.85;;;27.90;99.90;;;;;;5057243;28;20672;-80
2022/09/05 09:34:47;;;;;;;4.90;2.00;;;27.80;99.90;;;;;;5073934;28;20281;-82
2022/09/05 09:37:31;;;;;;;3.10;1.60;;;27.90;99.90;;;;;;5073908;28;20203;-81
2022/09/05 09:40:35;;;;;;;2.72;1.77;;;27.90;99.90;;;;;;5053239;28;20484;-80
2022/09/05 09:43:08;;;;;;;2.33;1.77;;;27.90;99.90;;;;;;4992094;28;20216;-80
2022/09/05 09:46:01;;;;;;;3.47;1.50;;;28.00;99.90;;;;;;5067592;28;20244;-81
2022/09/05 09:48:52;;;;;;;2.47;1.67;;;28.10;99.90;;;;;;5075598;28;20236;-81
2022/09/05 09:51:45;;;;;;;2.35;1.45;;;28.20;99.90;;;;;;5073842;28;20197;-81
2022/09/05 09:54:34;;;;;;;3.53;1.40;;;28.20;99.90;;;;;;5057872;28;20726;-81
2022/09/05 09:57:30;;;;;;;4.88;1.80;;;28.30;99.90;;;;;;5053537;28;20494;-80
2022/09/05 10:00:10;;;;;;;3.08;1.60;;;28.50;99.90;;;;;;5060384;28;20227;-81
2022/09/05 10:03:10;;;;;;;4.90;1.70;;;28.60;99.90;;;;;;5058529;28;20605;-82
2022/09/05 10:06:01;;;;;;;4.53;1.83;;;28.60;97.00;;;;;;5055504;28;20220;-85
2022/09/05 10:08:48;;;;;;;6.07;1.75;;;28.60;99.20;;;;;;5091799;28;20197;-83
2022/09/05 10:11:31;;;;;;;4.00;1.38;;;28.80;98.10;;;;;;5090336;28;20267;-80
2022/09/05 10:14:26;;;;;;;1.98;1.63;;;28.90;97.00;;;;;;5050417;28;20197;-81
2022/09/05 10:17:23;;;;;;;2.53;1.95;;;28.90;95.80;;;;;;5012839;28;20220;-82
2022/09/05 10:20:21;;;;;;;3.00;1.80;;;29.10;98.10;;;;;;5052877;28;20459;-80
2022/09/05 10:23:15;;;;;;;2.05;1.63;;;29.20;93.50;;;;;;5051691;28;20273;-82
2022/09/05 10:26:04;;;;;;;2.33;1.65;;;29.40;93.90;;;;;;5066603;28;20225;-81
2022/09/05 10:28:38;;;;;;;2.10;1.20;;;29.50;95.10;;;;;;5072256;28;20207;-83
2022/09/05 10:31:15;;;;;;;4.25;1.63;;;29.80;95.50;;;;;;5071777;28;20223;-82
2022/09/05 10:33:55;;;;;;;3.03;1.70;;;29.90;90.00;;;;;;5072068;28;20185;-82
2022/09/05 10:36:24;;;;;;;2.33;1.33;;;29.80;86.50;;;;;;5072153;28;20204;-82
2022/09/05 10:39:12;;;;;;;3.70;1.90;;;29.90;81.10;;;;;;5058259;28;20201;-81
2022/09/05 10:41:48;;;;;;;3.00;1.30;;;29.80;79.10;;;;;;5051850;28;20212;-80
2022/09/05 10:44:16;;;;;;;1.83;1.63;;;30.00;78.60;;;;;;5058174;28;20227;-83
2022/09/05 10:46:54;;;;;;;2.28;1.48;;;30.30;74.30;;;;;;5092468;28;20307;-81
2022/09/05 10:49:24;;;;;;;4.57;1.90;;;30.40;68.90;;;;;;5092030;28;20210;-83
2022/09/05 10:51:59;;;;;;;2.42;1.45;;;30.10;67.60;;;;;;5081331;28;20219;-84
2022/09/05 10:54:37;;;;;;;5.90;1.40;;;30.40;68.70;;;;;;5073070;28;20189;-81
2022/09/05 10:57:15;;;;;;;3.85;1.67;;;30.50;69.70;;;;;;5072960;28;20193;-82
2022/09/05 11:00:01;;;;;;;1.92;1.55;;;30.70;69.20;;;;;;5072905;28;20185;-82
2022/09/05 11:02:29;;;;;;;2.47;1.35;;;30.60;67.30;;;;;;5072878;28;20231;-81
2022/09/05 11:05:06;;;;;;;4.30;1.60;;;30.70;67.10;;;;;;5072851;28;20989;-84
2022/09/05 11:07:40;;;;;;;3.60;1.77;;;30.70;66.40;;;;;;5073072;28;20224;-83
2022/09/05 11:10:14;;;;;;;2.92;1.35;;;30.60;72.20;;;;;;5071385;28;20197;-84
2022/09/05 11:13:13;;;;;;;2.00;1.38;;;30.60;60.50;;;;;;5071771;28;20204;-85
2022/09/05 11:15:58;;;;;;;1.98;1.33;;;30.40;58.50;;;;;;5072635;28;20197;-83
2022/09/05 11:19:02;;;;;;;3.75;1.50;;;30.50;58.70;;;;;;5071505;28;20200;-83
2022/09/05 11:21:47;;;;;;;2.55;1.50;;;30.60;57.60;;;;;;4970662;28;20188;-83
2022/09/05 11:24:28;;;;;;;4.05;1.52;;;30.40;55.10;;;;;;4971104;28;20232;-84
2022/09/05 11:27:00;;;;;;;4.57;1.60;;;30.30;55.90;;;;;;5027454;28;20213;-83
2022/09/05 11:29:36;;;;;;;2.90;1.63;;;30.40;56.10;;;;;;5051784;28;20198;-82
2022/09/05 11:32:53;;;;;;;2.67;1.40;;;30.30;51.20;;;;;;5055025;28;20549;-82
2022/09/05 11:35:23;;;;;;;2.97;1.63;;;30.30;50.50;;;;;;5075750;28;20290;-84
2022/09/05 11:38:18;;;;;;;2.63;1.60;;;30.40;53.70;;;;;;5075904;28;20458;-81
2022/09/05 11:41:10;;;;;;;2.17;1.55;;;30.50;49.30;;;;;;5075652;28;20205;-85
2022/09/05 11:44:04;;;;;;;1.38;1.27;;;30.70;49.10;;;;;;5076042;28;20239;-88
2022/09/05 11:46:36;;;;;;;3.55;1.42;;;30.90;51.00;;;;;;5066706;28;20209;-86
2022/09/05 11:49:31;;;;;;;3.97;1.42;;;30.90;48.00;;;;;;5056167;28;20527;-87
2022/09/05 11:52:39;;;;;;;1.73;1.38;;;30.90;47.90;;;;;;5055775;28;20206;-81
2022/09/05 11:55:36;;;;;;;4.68;1.50;;;30.90;43.50;;;;;;5064394;28;20231;-82
2022/09/05 11:58:22;;;;;;;3.67;1.50;;;31.00;43.10;;;;;;5096494;28;20235;-83
2022/09/05 12:00:59;;;;;;;3.83;1.45;;;31.00;45.90;;;;;;5078309;28;20202;-89
2022/09/05 12:03:41;;;;;;;3.88;1.58;;;30.90;42.80;;;;;;5059864;28;20197;-87
2022/09/05 12:06:23;;;;;;;3.97;1.67;;;30.70;41.40;;;;;;5075674;28;20223;-83
2022/09/05 12:08:58;;;;;;;4.47;1.70;;;30.60;39.00;;;;;;5059581;28;20263;-85
2022/09/05 12:11:43;;;;;;;7.82;1.70;;;30.50;39.80;;;;;;5055851;28;20193;-84
2022/09/05 12:14:31;;;;;;;2.42;1.48;;;30.30;38.00;;;;;;5054403;28;20616;-85
2022/09/05 12:17:06;;;;;;;1.45;1.35;;;30.50;37.20;;;;;;5055011;28;20480;-82
2022/09/05 12:19:37;;;;;;;3.60;1.40;;;30.70;36.50;;;;;;5054282;28;20271;-81
2022/09/05 12:22:17;;;;;;;3.50;1.38;;;30.60;34.80;;;;;;5054413;28;20518;-81
2022/09/05 12:25:06;;;;;;;2.90;1.23;;;30.50;35.60;;;;;;5064557;28;20209;-81
2022/09/05 12:27:36;;;;;;;3.08;1.70;;;30.20;32.10;;;;;;5063991;28;20221;-81
2022/09/05 12:30:07;;;;;;;4.68;1.20;;;30.00;32.80;;;;;;5059257;28;20210;-84
2022/09/05 12:32:49;;;;;;;3.58;1.55;;;30.00;31.00;;;;;;5054870;28;20198;-82
2022/09/05 12:35:24;;;;;;;4.45;1.67;;;30.00;30.30;;;;;;5075807;28;20192;-82
2022/09/05 12:37:57;;;;;;;2.45;1.30;;;30.00;28.50;;;;;;5084219;28;20194;-81
2022/09/05 12:40:28;;;;;;;5.07;1.80;;;30.20;29.50;;;;;;5054579;28;20186;-83
2022/09/05 12:42:57;;;;;;;3.83;1.73;;;30.40;31.50;;;;;;5053514;28;20202;-82
2022/09/05 12:45:32;;;;;;;1.90;1.48;;;30.60;31.70;;;;;;5067782;28;20204;-81
2022/09/05 12:48:12;;;;;;;4.57;1.40;;;30.70;30.80;;;;;;5074635;28;20270;-82
2022/09/05 12:50:46;;;;;;;2.28;1.48;;;31.00;31.20;;;;;;5037530;28;20293;-86
2022/09/05 12:53:17;;;;;;;1.83;1.67;;;31.20;32.50;;;;;;5064199;28;20228;-83
2022/09/05 12:55:51;;;;;;;3.65;1.70;;;31.40;31.10;;;;;;5069676;28;20225;-84
2022/09/05 12:58:23;;;;;;;3.60;1.60;;;31.40;30.30;;;;;;5074044;28;20197;-85
2022/09/05 13:00:53;;;;;;;2.50;1.45;;;31.50;30.40;;;;;;5074417;28;20494;-85
2022/09/05 13:03:29;;;;;;;2.63;1.50;;;31.80;31.00;;;;;;5074413;28;20637;-81
2022/09/05 13:06:05;;;;;;;3.92;1.92;;;32.00;30.40;;;;;;5073819;28;20201;-80
2022/09/05 13:08:42;;;;;;;4.82;2.17;;;32.20;32.00;;;;;;5073998;28;20311;-86
2022/09/05 13:11:12;;;;;;;8.25;6.13;;;32.20;34.50;;;;;;5074747;28;20649;-82
2022/09/05 13:13:46;;;;;;;7.75;3.28;;;32.20;34.30;;;;;;5074346;28;20280;-80
2022/09/05 13:16:19;;;;;;;6.43;2.55;;;32.00;33.00;;;;;;5068490;28;20281;-80
2022/09/05 13:18:50;;;;;;;8.10;3.30;;;31.80;32.20;;;;;;5053986;28;20182;-83
2022/09/05 13:21:20;;;;;;;4.78;3.20;;;31.60;30.40;;;;;;5055226;28;20281;-85
2022/09/05 13:24:00;;;;;;;11.38;3.83;;;31.30;29.30;;;;;;5055042;28;20277;-82
2022/09/05 13:26:35;;;;;;;8.55;3.85;;;31.30;28.60;;;;;;5064940;28;20201;-82
2022/09/05 13:29:10;;;;;;;6.47;3.13;;;31.10;27.90;;;;;;5075114;28;20207;-84
2022/09/05 13:32:14;;;;;;;9.07;4.43;;;31.10;28.40;;;;;;5074557;28;20223;-83
2022/09/05 13:34:45;;;;;;;7.68;4.22;;;30.90;26.90;;;;;;5074435;28;20295;-83
2022/09/05 13:37:19;;;;;;;6.90;4.00;;;30.70;26.40;;;;;;5074648;28;20205;-83
2022/09/05 13:39:52;;;;;;;4.55;3.10;;;30.60;26.50;;;;;;5074995;28;20207;-84
2022/09/05 13:42:21;;;;;;;7.40;3.70;;;30.60;28.50;;;;;;5075464;28;20216;-83
2022/09/05 13:44:54;;;;;;;6.05;3.05;;;30.70;27.30;;;;;;5074532;28;20288;-83
2022/09/05 13:47:54;;;;;;;6.45;3.92;;;30.70;28.10;;;;;;5073350;28;20315;-82
2022/09/05 13:50:26;;;;;;;4.88;3.35;;;30.70;26.70;;;;;;5074506;28;20382;-86
2022/09/05 13:53:03;;;;;;;5.80;2.97;;;30.60;27.20;;;;;;5073473;28;20205;-84